Time;durP1;ratioP1;P1;durP2;ratioP2;P2;SDS_P1;SDS_P2;PMS_P1;PMS_P2;Temp;Humidity;BMP_temperature;BMP_pressure;BME280_temperature;BME280_humidity;BME280_pressure;Samples;Min_cycle;Max_cycle;Signal;HPM_P1;HPM_P2
2021/11/02 00:00:09;;;;;;;1.95;0.80;;;15.50;65.20;;;;;;20803778;28;20034;-75
2021/11/02 00:10:12;;;;;;;2.60;1.10;;;15.50;65.20;;;;;;20791649;28;20040;-75
2021/11/02 00:20:15;;;;;;;1.60;0.73;;;15.50;65.10;;;;;;20785642;28;20126;-75
2021/11/02 00:30:16;;;;;;;0.85;0.70;;;15.50;65.00;;;;;;20784956;28;20036;-75
2021/11/02 00:40:18;;;;;;;3.00;1.35;;;15.50;64.90;;;;;;20800676;28;20104;-73
2021/11/02 00:50:20;;;;;;;2.33;0.90;;;15.40;64.80;;;;;;20799432;28;20129;-73
2021/11/02 01:00:24;;;;;;;2.35;0.77;;;15.40;64.80;;;;;;20798601;28;20570;-74
2021/11/02 01:10:25;;;;;;;1.27;0.82;;;15.40;64.70;;;;;;20782306;28;20112;-73
2021/11/02 01:20:27;;;;;;;1.58;0.70;;;15.40;64.60;;;;;;20796169;28;20065;-74
2021/11/02 01:30:27;;;;;;;1.25;0.68;;;15.40;64.60;;;;;;20796783;28;20052;-74
2021/11/02 01:40:28;;;;;;;2.17;0.73;;;15.40;64.50;;;;;;20779331;28;20041;-73
2021/11/02 01:50:29;;;;;;;2.15;0.85;;;15.40;64.40;;;;;;20778909;28;20036;-74
2021/11/02 02:00:30;;;;;;;1.75;0.80;;;15.40;64.30;;;;;;20777513;28;20033;-73
2021/11/02 02:10:53;;;;;;;1.75;0.75;;;15.40;64.20;;;;;;20794249;28;20026;-73
2021/11/02 02:21:11;;;;;;;1.52;0.65;;;15.40;64.10;;;;;;20793225;28;20041;-73
2021/11/02 02:31:17;;;;;;;1.10;0.50;;;15.30;64.00;;;;;;20792401;28;20068;-73
2021/11/02 02:41:21;;;;;;;1.40;0.80;;;15.30;63.90;;;;;;20792015;28;20033;-73
2021/11/02 02:51:21;;;;;;;1.45;0.77;;;15.30;63.90;;;;;;20807161;28;20037;-73
2021/11/02 03:01:25;;;;;;;1.55;0.95;;;15.30;63.80;;;;;;20774196;28;20091;-74
2021/11/02 03:11:27;;;;;;;2.92;0.73;;;15.30;63.70;;;;;;20789251;28;20360;-74
2021/11/02 04:45:13;;;;;;;1.23;0.60;;;15.50;62.00;;;;;;20802526;28;20376;-73
2021/11/02 06:07:00;;;;;;;1.38;0.77;;;18.10;53.30;;;;;;20791043;28;20082;-72
2021/11/02 06:27:46;;;;;;;0.77;0.70;;;16.80;56.10;;;;;;20811126;28;20037;-75
2021/11/02 06:38:04;;;;;;;5.30;0.65;;;16.40;57.10;;;;;;20778496;28;20041;-78
2021/11/02 07:19:14;;;;;;;1.52;0.75;;;15.80;59.00;;;;;;20809358;28;20292;-76
2021/11/02 07:29:46;;;;;;;2.10;0.80;;;15.80;59.00;;;;;;20786657;28;20484;-76
2021/11/02 08:52:34;;;;;;;2.25;0.90;;;16.20;58.90;;;;;;20705364;28;20467;-77
2021/11/02 09:02:41;;;;;;;2.15;1.15;;;16.20;59.10;;;;;;20741226;28;20550;-77
2021/11/02 09:12:43;;;;;;;2.42;0.60;;;16.20;59.20;;;;;;20795369;28;20444;-77
2021/11/02 09:22:44;;;;;;;1.77;0.68;;;16.10;59.30;;;;;;20795802;28;20041;-78
2021/11/02 09:32:45;;;;;;;0.60;0.50;;;16.20;59.50;;;;;;20794430;28;20116;-76
2021/11/02 09:43:11;;;;;;;2.22;0.77;;;16.10;59.50;;;;;;20793020;28;20111;-77
2021/11/02 09:53:35;;;;;;;6.97;0.80;;;16.10;59.70;;;;;;20796001;28;20044;-76
2021/11/02 10:03:57;;;;;;;1.08;0.57;;;16.10;59.80;;;;;;20792186;28;20402;-77
2021/11/02 10:14:37;;;;;;;1.55;0.80;;;16.10;59.90;;;;;;20807718;28;20063;-77
2021/11/02 10:24:59;;;;;;;1.35;0.70;;;16.10;60.00;;;;;;20769583;28;20045;-76
2021/11/02 10:35:21;;;;;;;2.60;0.75;;;16.10;60.10;;;;;;20774294;28;20033;-75
2021/11/02 10:45:24;;;;;;;0.70;0.45;;;16.10;60.10;;;;;;20777050;28;20483;-77
2021/11/02 10:55:44;;;;;;;4.15;0.68;;;16.10;60.20;;;;;;21151109;22;20049;-78
2021/11/02 11:05:59;;;;;;;0.82;0.50;;;16.10;60.20;;;;;;20806127;28;20120;-79
2021/11/02 11:16:06;;;;;;;1.15;0.60;;;16.00;60.20;;;;;;20769697;28;20061;-75
2021/11/02 11:26:07;;;;;;;0.68;0.55;;;16.10;60.30;;;;;;20783978;28;20065;-74
2021/11/02 11:36:08;;;;;;;3.35;0.70;;;16.00;60.30;;;;;;20787670;28;20045;-76
2021/11/02 11:46:08;;;;;;;4.35;0.70;;;16.00;60.40;;;;;;20788196;28;20563;-77
2021/11/02 11:56:13;;;;;;;4.93;0.60;;;16.00;60.50;;;;;;20788219;28;20498;-75
2021/11/02 12:06:47;;;;;;;0.50;0.40;;;16.00;60.50;;;;;;20807296;28;20117;-80
2021/11/02 12:16:48;;;;;;;1.48;0.50;;;16.00;60.60;;;;;;20802391;28;20037;-76
2021/11/02 12:26:49;;;;;;;0.88;0.50;;;16.00;60.60;;;;;;20785894;28;20120;-82
2021/11/02 12:36:50;;;;;;;1.23;0.77;;;16.00;60.70;;;;;;20784817;28;20094;-81
2021/11/02 12:46:51;;;;;;;0.65;0.52;;;15.90;60.70;;;;;;20801014;28;20502;-80
2021/11/02 12:57:03;;;;;;;1.23;1.00;;;15.90;60.80;;;;;;20800094;28;20045;-80
2021/11/02 13:07:11;;;;;;;1.25;0.52;;;15.90;60.80;;;;;;20798872;28;20037;-80
2021/11/02 13:17:17;;;;;;;1.65;0.50;;;15.90;60.80;;;;;;20781751;28;20042;-81
2021/11/02 13:27:27;;;;;;;1.40;0.88;;;15.90;60.90;;;;;;20798304;28;20041;-81
2021/11/02 13:37:28;;;;;;;2.35;0.50;;;15.90;60.90;;;;;;20813533;28;20030;-80
2021/11/02 13:47:28;;;;;;;0.45;0.35;;;15.90;60.90;;;;;;20795834;28;20348;-81
2021/11/02 13:57:29;;;;;;;4.18;0.47;;;15.90;61.00;;;;;;20795453;28;20037;-82
2021/11/02 14:07:31;;;;;;;0.77;0.50;;;15.90;61.00;;;;;;20778968;28;20042;-80
2021/11/02 14:17:32;;;;;;;1.00;0.40;;;15.90;61.00;;;;;;20794778;28;20037;-80
2021/11/02 14:27:42;;;;;;;0.65;0.40;;;15.90;61.00;;;;;;20793165;28;20053;-80
2021/11/02 14:37:51;;;;;;;0.38;0.30;;;15.90;61.20;;;;;;20792996;28;20128;-80
2021/11/02 14:47:53;;;;;;;0.88;0.40;;;15.90;61.20;;;;;;20775676;28;20120;-81
2021/11/02 14:57:54;;;;;;;1.92;0.30;;;15.90;61.30;;;;;;20791620;28;20136;-79
2021/11/02 15:07:55;;;;;;;0.63;0.40;;;15.80;61.30;;;;;;20791378;28;20077;-78
2021/11/02 15:18:09;;;;;;;0.65;0.38;;;15.80;61.30;;;;;;20789743;28;20037;-79
2021/11/02 15:28:10;;;;;;;1.90;0.55;;;15.80;61.30;;;;;;20789362;28;20049;-75
2021/11/02 15:38:11;;;;;;;0.77;0.50;;;15.80;61.40;;;;;;20764519;28;20029;-75
2021/11/02 15:48:19;;;;;;;0.57;0.30;;;15.80;61.40;;;;;;20784041;28;20037;-75
2021/11/02 15:58:22;;;;;;;0.25;0.20;;;15.80;61.40;;;;;;20787788;28;20045;-75
2021/11/02 16:08:23;;;;;;;1.15;0.40;;;15.80;61.50;;;;;;20770881;28;20041;-76
2021/11/02 16:18:25;;;;;;;0.47;0.32;;;15.80;61.50;;;;;;20786766;28;20125;-78
2021/11/02 16:28:28;;;;;;;0.43;0.40;;;15.80;61.60;;;;;;20790737;28;20041;-83
2021/11/02 16:38:36;;;;;;;1.67;0.52;;;15.70;61.60;;;;;;20784649;28;20360;-80
2021/11/02 16:48:41;;;;;;;0.90;0.60;;;15.70;61.60;;;;;;20784642;28;20072;-80
2021/11/02 16:58:46;;;;;;;0.53;0.30;;;15.70;61.60;;;;;;20800864;28;20063;-78
2021/11/02 17:09:06;;;;;;;0.40;0.40;;;15.70;61.60;;;;;;20777201;28;20042;-74
2021/11/02 17:19:09;;;;;;;1.00;0.47;;;15.70;61.60;;;;;;20813443;28;20138;-81
2021/11/02 17:29:09;;;;;;;0.60;0.50;;;15.80;61.70;;;;;;20795120;28;20041;-77
2021/11/02 17:39:11;;;;;;;1.90;0.40;;;15.70;61.50;;;;;;20796086;28;20038;-79
2021/11/02 17:49:12;;;;;;;0.80;0.50;;;15.70;61.60;;;;;;20726598;28;20500;-75
2021/11/02 17:59:13;;;;;;;0.73;0.40;;;15.70;61.70;;;;;;20811279;28;20499;-84
2021/11/02 18:09:13;;;;;;;1.65;0.38;;;15.70;62.30;;;;;;20776770;28;20103;-81
2021/11/02 18:19:15;;;;;;;0.93;0.28;;;15.70;61.70;;;;;;20780183;28;20109;-83
2021/11/02 18:29:19;;;;;;;1.98;0.50;;;15.60;61.60;;;;;;20775933;28;20037;-83
2021/11/02 18:39:20;;;;;;;1.65;0.50;;;15.60;61.60;;;;;;20779547;28;20149;-76
2021/11/02 18:49:20;;;;;;;1.10;0.45;;;15.60;61.50;;;;;;20788526;28;20069;-76
2021/11/02 18:59:21;;;;;;;0.57;0.57;;;15.60;61.40;;;;;;20822086;28;20487;-78
2021/11/02 19:09:21;;;;;;;1.27;0.63;;;15.60;61.30;;;;;;20771595;28;20466;-76
2021/11/02 19:19:22;;;;;;;0.63;0.40;;;15.60;61.30;;;;;;20805094;28;20427;-77
2021/11/02 19:29:24;;;;;;;0.35;0.35;;;15.60;61.20;;;;;;20788149;28;20034;-76
2021/11/02 19:39:25;;;;;;;1.25;0.50;;;15.60;61.80;;;;;;20762182;28;20063;-77
2021/11/02 19:49:27;;;;;;;2.22;0.40;;;15.60;61.10;;;;;;20751374;28;20025;-77
2021/11/02 19:59:27;;;;;;;0.55;0.50;;;15.50;60.80;;;;;;20766497;28;20065;-76
2021/11/02 20:09:33;;;;;;;1.83;0.60;;;15.50;60.80;;;;;;20782798;28;20041;-77
2021/11/02 20:19:33;;;;;;;1.30;0.55;;;15.50;60.70;;;;;;20800356;28;20088;-77
2021/11/02 20:29:34;;;;;;;0.63;0.40;;;15.50;60.70;;;;;;20773724;28;20053;-77
2021/11/02 20:39:47;;;;;;;1.02;0.52;;;15.50;60.50;;;;;;20763116;28;20040;-78
2021/11/02 20:49:56;;;;;;;9.27;1.00;;;15.50;60.40;;;;;;20795019;28;20039;-76
2021/11/02 20:59:56;;;;;;;0.80;0.60;;;15.50;60.30;;;;;;20797736;28;20117;-77
2021/11/02 21:09:58;;;;;;;2.25;0.50;;;15.50;60.30;;;;;;20763978;28;20025;-77
2021/11/02 21:19:58;;;;;;;1.65;0.60;;;15.50;60.20;;;;;;20779737;28;20041;-77
2021/11/02 21:30:00;;;;;;;1.55;0.93;;;15.50;60.20;;;;;;20779863;28;20383;-77
2021/11/02 21:40:01;;;;;;;0.80;0.50;;;15.50;60.10;;;;;;20762682;28;20026;-77
2021/11/02 21:50:13;;;;;;;1.10;0.60;;;15.40;60.10;;;;;;20778911;28;20049;-78
2021/11/02 22:00:14;;;;;;;1.60;0.80;;;15.40;60.10;;;;;;20794951;28;20369;-77
2021/11/02 22:10:15;;;;;;;1.50;0.70;;;15.40;60.10;;;;;;20777617;28;20030;-77
2021/11/02 22:20:16;;;;;;;0.88;0.60;;;15.40;60.10;;;;;;20793177;28;20383;-78
2021/11/02 22:30:17;;;;;;;0.95;0.57;;;15.40;60.10;;;;;;20809365;28;20037;-78
2021/11/02 22:40:19;;;;;;;1.02;0.57;;;15.40;60.00;;;;;;20789211;28;20041;-76
2021/11/02 22:50:21;;;;;;;1.38;0.68;;;15.40;60.00;;;;;;20790180;28;20052;-77
2021/11/02 23:00:46;;;;;;;0.95;0.60;;;15.40;60.00;;;;;;20790653;28;20123;-79
2021/11/02 23:10:48;;;;;;;1.92;0.95;;;15.40;60.10;;;;;;20774798;28;20030;-76
2021/11/02 23:20:48;;;;;;;1.30;0.80;;;15.30;60.10;;;;;;20789990;28;20464;-78
2021/11/02 23:30:49;;;;;;;2.47;1.20;;;15.30;60.10;;;;;;20805394;28;20069;-78
2021/11/02 23:40:50;;;;;;;1.38;0.90;;;15.40;60.20;;;;;;20788213;28;20037;-78
2021/11/02 23:50:51;;;;;;;1.77;1.13;;;15.40;60.20;;;;;;20787706;28;20063;-78
